sensor_id;sensor_type;location;lat;lon;timestamp;P1;durP1;ratioP1;P2;durP2;ratioP2
82255;SDS011;72145;34.434;-117.370;2023-08-21T00:00:04;9.48;;;5.07;;
82255;SDS011;72145;34.434;-117.370;2023-08-21T00:00:37;7.65;;;5.82;;
82255;SDS011;72145;34.434;-117.370;2023-08-21T00:01:10;7.07;;;4.72;;
82255;SDS011;72145;34.434;-117.370;2023-08-21T00:01:44;7.03;;;3.05;;
82255;SDS011;72145;34.434;-117.370;2023-08-21T00:02:17;6.70;;;3.50;;
82255;SDS011;72145;34.434;-117.370;2023-08-21T00:02:50;5.85;;;3.22;;
82255;SDS011;72145;34.434;-117.370;2023-08-21T00:03:23;6.75;;;3.92;;
82255;SDS011;72145;34.434;-117.370;2023-08-21T00:03:57;5.80;;;3.03;;
82255;SDS011;72145;34.434;-117.370;2023-08-21T00:04:30;6.45;;;3.40;;
82255;SDS011;72145;34.434;-117.370;2023-08-21T00:05:04;8.88;;;7.85;;
82255;SDS011;72145;34.434;-117.370;2023-08-21T00:05:38;7.53;;;5.00;;
82255;SDS011;72145;34.434;-117.370;2023-08-21T00:06:12;9.43;;;5.07;;
82255;SDS011;72145;34.434;-117.370;2023-08-21T00:06:45;7.30;;;4.45;;
82255;SDS011;72145;34.434;-117.370;2023-08-21T00:07:18;7.22;;;6.25;;
82255;SDS011;72145;34.434;-117.370;2023-08-21T00:07:51;7.63;;;6.60;;
82255;SDS011;72145;34.434;-117.370;2023-08-21T00:08:24;8.85;;;6.55;;
82255;SDS011;72145;34.434;-117.370;2023-08-21T00:08:57;8.65;;;6.70;;
82255;SDS011;72145;34.434;-117.370;2023-08-21T00:09:32;10.02;;;6.55;;
82255;SDS011;72145;34.434;-117.370;2023-08-21T00:10:06;8.70;;;6.40;;
82255;SDS011;72145;34.434;-117.370;2023-08-21T00:10:39;7.15;;;5.13;;
82255;SDS011;72145;34.434;-117.370;2023-08-21T00:11:13;9.05;;;6.38;;
82255;SDS011;72145;34.434;-117.370;2023-08-21T00:11:46;7.00;;;5.82;;
82255;SDS011;72145;34.434;-117.370;2023-08-21T00:12:19;7.90;;;7.10;;
82255;SDS011;72145;34.434;-117.370;2023-08-21T00:12:52;8.55;;;6.20;;
82255;SDS011;72145;34.434;-117.370;2023-08-21T00:13:25;6.65;;;5.57;;
82255;SDS011;72145;34.434;-117.370;2023-08-21T00:13:59;6.63;;;6.00;;
82255;SDS011;72145;34.434;-117.370;2023-08-21T00:14:32;7.75;;;6.03;;
82255;SDS011;72145;34.434;-117.370;2023-08-21T00:15:05;7.75;;;7.05;;
82255;SDS011;72145;34.434;-117.370;2023-08-21T00:15:39;6.57;;;5.15;;
82255;SDS011;72145;34.434;-117.370;2023-08-21T00:16:12;7.03;;;5.00;;
82255;SDS011;72145;34.434;-117.370;2023-08-21T00:16:45;7.15;;;6.43;;
82255;SDS011;72145;34.434;-117.370;2023-08-21T00:17:18;6.55;;;5.20;;
82255;SDS011;72145;34.434;-117.370;2023-08-21T00:17:51;5.15;;;1.90;;
82255;SDS011;72145;34.434;-117.370;2023-08-21T00:18:24;6.10;;;1.83;;
82255;SDS011;72145;34.434;-117.370;2023-08-21T00:18:58;5.28;;;1.77;;
82255;SDS011;72145;34.434;-117.370;2023-08-21T00:19:32;5.20;;;2.33;;
82255;SDS011;72145;34.434;-117.370;2023-08-21T00:20:05;7.35;;;5.10;;
82255;SDS011;72145;34.434;-117.370;2023-08-21T00:20:41;9.35;;;8.45;;
82255;SDS011;72145;34.434;-117.370;2023-08-21T00:21:15;8.60;;;6.93;;
82255;SDS011;72145;34.434;-117.370;2023-08-21T00:21:48;7.22;;;3.63;;
82255;SDS011;72145;34.434;-117.370;2023-08-21T00:22:21;5.82;;;2.95;;
82255;SDS011;72145;34.434;-117.370;2023-08-21T00:22:54;8.85;;;4.53;;
82255;SDS011;72145;34.434;-117.370;2023-08-21T00:23:27;8.27;;;4.20;;
82255;SDS011;72145;34.434;-117.370;2023-08-21T00:24:04;7.38;;;3.30;;
82255;SDS011;72145;34.434;-117.370;2023-08-21T00:24:38;7.85;;;4.13;;
82255;SDS011;72145;34.434;-117.370;2023-08-21T00:25:11;6.95;;;3.67;;
82255;SDS011;72145;34.434;-117.370;2023-08-21T00:25:46;7.72;;;3.90;;
82255;SDS011;72145;34.434;-117.370;2023-08-21T00:26:20;6.28;;;3.08;;
82255;SDS011;72145;34.434;-117.370;2023-08-21T00:26:53;12.77;;;8.55;;
82255;SDS011;72145;34.434;-117.370;2023-08-21T00:27:26;13.93;;;9.15;;
82255;SDS011;72145;34.434;-117.370;2023-08-21T00:27:59;10.15;;;6.20;;
82255;SDS011;72145;34.434;-117.370;2023-08-21T00:28:32;11.18;;;6.15;;
82255;SDS011;72145;34.434;-117.370;2023-08-21T00:29:07;7.70;;;4.25;;
82255;SDS011;72145;34.434;-117.370;2023-08-21T00:29:40;6.93;;;3.10;;
82255;SDS011;72145;34.434;-117.370;2023-08-21T00:30:13;10.80;;;6.43;;
82255;SDS011;72145;34.434;-117.370;2023-08-21T00:30:49;13.70;;;10.95;;
82255;SDS011;72145;34.434;-117.370;2023-08-21T00:31:22;16.33;;;11.85;;
82255;SDS011;72145;34.434;-117.370;2023-08-21T00:31:55;14.70;;;10.55;;
82255;SDS011;72145;34.434;-117.370;2023-08-21T00:32:29;9.65;;;4.90;;
82255;SDS011;72145;34.434;-117.370;2023-08-21T00:33:02;13.15;;;9.95;;
82255;SDS011;72145;34.434;-117.370;2023-08-21T00:33:35;15.23;;;10.80;;
82255;SDS011;72145;34.434;-117.370;2023-08-21T00:34:09;10.13;;;4.28;;
82255;SDS011;72145;34.434;-117.370;2023-08-21T00:34:42;12.27;;;9.05;;
82255;SDS011;72145;34.434;-117.370;2023-08-21T00:35:15;8.15;;;6.40;;
82255;SDS011;72145;34.434;-117.370;2023-08-21T00:35:49;12.30;;;10.75;;
82255;SDS011;72145;34.434;-117.370;2023-08-21T00:36:22;13.38;;;11.75;;
82255;SDS011;72145;34.434;-117.370;2023-08-21T00:36:55;15.35;;;10.52;;
82255;SDS011;72145;34.434;-117.370;2023-08-21T00:37:28;18.20;;;15.18;;
82255;SDS011;72145;34.434;-117.370;2023-08-21T00:38:01;13.32;;;10.40;;
82255;SDS011;72145;34.434;-117.370;2023-08-21T00:38:34;9.68;;;6.18;;
82255;SDS011;72145;34.434;-117.370;2023-08-21T00:39:08;9.60;;;7.93;;
82255;SDS011;72145;34.434;-117.370;2023-08-21T00:39:41;8.82;;;7.90;;
82255;SDS011;72145;34.434;-117.370;2023-08-21T00:40:14;10.05;;;8.20;;
82255;SDS011;72145;34.434;-117.370;2023-08-21T00:40:47;9.00;;;7.78;;
82255;SDS011;72145;34.434;-117.370;2023-08-21T00:41:20;16.13;;;12.38;;
82255;SDS011;72145;34.434;-117.370;2023-08-21T00:41:53;9.10;;;7.28;;
82255;SDS011;72145;34.434;-117.370;2023-08-21T00:42:27;7.43;;;6.68;;
82255;SDS011;72145;34.434;-117.370;2023-08-21T00:43:00;10.43;;;6.50;;
82255;SDS011;72145;34.434;-117.370;2023-08-21T00:43:33;10.43;;;7.57;;
82255;SDS011;72145;34.434;-117.370;2023-08-21T00:44:07;10.68;;;8.45;;
82255;SDS011;72145;34.434;-117.370;2023-08-21T00:44:40;9.70;;;5.40;;
82255;SDS011;72145;34.434;-117.370;2023-08-21T00:45:13;7.90;;;4.60;;
82255;SDS011;72145;34.434;-117.370;2023-08-21T00:45:46;9.13;;;5.07;;
82255;SDS011;72145;34.434;-117.370;2023-08-21T00:46:22;9.48;;;6.00;;
82255;SDS011;72145;34.434;-117.370;2023-08-21T00:46:55;7.43;;;3.00;;
82255;SDS011;72145;34.434;-117.370;2023-08-21T00:47:29;7.75;;;2.40;;
82255;SDS011;72145;34.434;-117.370;2023-08-21T00:48:02;6.68;;;4.70;;
82255;SDS011;72145;34.434;-117.370;2023-08-21T00:48:36;7.45;;;4.20;;
82255;SDS011;72145;34.434;-117.370;2023-08-21T00:49:09;7.00;;;3.95;;
82255;SDS011;72145;34.434;-117.370;2023-08-21T00:49:44;8.40;;;3.67;;
82255;SDS011;72145;34.434;-117.370;2023-08-21T00:50:20;7.07;;;4.35;;
82255;SDS011;72145;34.434;-117.370;2023-08-21T00:50:53;7.85;;;3.40;;
82255;SDS011;72145;34.434;-117.370;2023-08-21T00:51:27;8.10;;;3.45;;
82255;SDS011;72145;34.434;-117.370;2023-08-21T00:52:01;10.10;;;3.35;;
82255;SDS011;72145;34.434;-117.370;2023-08-21T00:52:34;8.00;;;1.98;;
82255;SDS011;72145;34.434;-117.370;2023-08-21T00:53:09;7.97;;;2.65;;
82255;SDS011;72145;34.434;-117.370;2023-08-21T00:53:43;8.50;;;4.03;;
82255;SDS011;72145;34.434;-117.370;2023-08-21T00:54:17;10.63;;;5.10;;
82255;SDS011;72145;34.434;-117.370;2023-08-21T00:54:52;6.03;;;2.72;;
82255;SDS011;72145;34.434;-117.370;2023-08-21T00:55:26;9.00;;;5.20;;
82255;SDS011;72145;34.434;-117.370;2023-08-21T00:56:00;9.10;;;6.68;;
82255;SDS011;72145;34.434;-117.370;2023-08-21T00:56:33;7.13;;;5.97;;
82255;SDS011;72145;34.434;-117.370;2023-08-21T00:57:06;7.45;;;5.00;;
82255;SDS011;72145;34.434;-117.370;2023-08-21T00:57:40;7.03;;;3.03;;
82255;SDS011;72145;34.434;-117.370;2023-08-21T00:58:13;9.27;;;5.60;;
82255;SDS011;72145;34.434;-117.370;2023-08-21T00:58:47;9.75;;;7.30;;
82255;SDS011;72145;34.434;-117.370;2023-08-21T00:59:20;7.20;;;5.38;;
82255;SDS011;72145;34.434;-117.370;2023-08-21T00:59:54;10.05;;;5.63;;
82255;SDS011;72145;34.434;-117.370;2023-08-21T01:00:27;11.93;;;6.90;;
82255;SDS011;72145;34.434;-117.370;2023-08-21T01:01:02;7.75;;;4.13;;
82255;SDS011;72145;34.434;-117.370;2023-08-21T01:01:37;8.27;;;3.33;;
82255;SDS011;72145;34.434;-117.370;2023-08-21T01:02:11;9.20;;;5.63;;
82255;SDS011;72145;34.434;-117.370;2023-08-21T01:02:44;10.10;;;6.75;;
82255;SDS011;72145;34.434;-117.370;2023-08-21T01:03:18;7.97;;;5.72;;
82255;SDS011;72145;34.434;-117.370;2023-08-21T01:03:51;8.07;;;1.52;;
82255;SDS011;72145;34.434;-117.370;2023-08-21T01:04:25;6.53;;;1.52;;
82255;SDS011;72145;34.434;-117.370;2023-08-21T01:04:58;8.65;;;3.80;;
82255;SDS011;72145;34.434;-117.370;2023-08-21T01:05:31;7.10;;;2.53;;
82255;SDS011;72145;34.434;-117.370;2023-08-21T01:06:06;7.50;;;3.75;;
82255;SDS011;72145;34.434;-117.370;2023-08-21T01:06:40;9.32;;;7.05;;
82255;SDS011;72145;34.434;-117.370;2023-08-21T01:07:14;6.35;;;1.75;;
82255;SDS011;72145;34.434;-117.370;2023-08-21T01:07:50;6.28;;;4.25;;
82255;SDS011;72145;34.434;-117.370;2023-08-21T01:09:40;5.10;;;1.55;;
82255;SDS011;72145;34.434;-117.370;2023-08-21T01:10:18;9.73;;;9.00;;
82255;SDS011;72145;34.434;-117.370;2023-08-21T01:12:06;6.90;;;5.30;;
82255;SDS011;72145;34.434;-117.370;2023-08-21T01:12:50;4.45;;;2.33;;
82255;SDS011;72145;34.434;-117.370;2023-08-21T01:13:42;5.20;;;1.73;;
82255;SDS011;72145;34.434;-117.370;2023-08-21T01:14:28;6.65;;;5.70;;
82255;SDS011;72145;34.434;-117.370;2023-08-21T01:15:06;7.30;;;6.70;;
82255;SDS011;72145;34.434;-117.370;2023-08-21T01:15:42;9.18;;;8.48;;
82255;SDS011;72145;34.434;-117.370;2023-08-21T01:16:17;5.80;;;4.53;;
82255;SDS011;72145;34.434;-117.370;2023-08-21T01:16:53;5.80;;;5.30;;
82255;SDS011;72145;34.434;-117.370;2023-08-21T01:17:30;6.53;;;5.93;;
82255;SDS011;72145;34.434;-117.370;2023-08-21T01:18:03;6.03;;;5.13;;
82255;SDS011;72145;34.434;-117.370;2023-08-21T01:18:37;8.10;;;7.30;;
82255;SDS011;72145;34.434;-117.370;2023-08-21T01:19:15;6.20;;;5.10;;
82255;SDS011;72145;34.434;-117.370;2023-08-21T01:20:31;6.18;;;4.95;;
82255;SDS011;72145;34.434;-117.370;2023-08-21T01:21:04;8.50;;;7.55;;
82255;SDS011;72145;34.434;-117.370;2023-08-21T01:21:38;7.30;;;6.70;;
82255;SDS011;72145;34.434;-117.370;2023-08-21T01:22:11;7.50;;;4.68;;
82255;SDS011;72145;34.434;-117.370;2023-08-21T01:22:44;6.82;;;6.13;;
82255;SDS011;72145;34.434;-117.370;2023-08-21T01:23:29;7.20;;;5.68;;
82255;SDS011;72145;34.434;-117.370;2023-08-21T01:24:09;7.72;;;6.93;;
82255;SDS011;72145;34.434;-117.370;2023-08-21T01:24:42;7.38;;;4.80;;
82255;SDS011;72145;34.434;-117.370;2023-08-21T01:25:15;7.40;;;6.70;;
82255;SDS011;72145;34.434;-117.370;2023-08-21T01:25:49;7.13;;;5.82;;
82255;SDS011;72145;34.434;-117.370;2023-08-21T01:26:22;10.10;;;9.20;;
82255;SDS011;72145;34.434;-117.370;2023-08-21T01:26:55;7.80;;;6.80;;
82255;SDS011;72145;34.434;-117.370;2023-08-21T01:27:28;6.35;;;5.75;;
82255;SDS011;72145;34.434;-117.370;2023-08-21T01:28:01;6.70;;;6.10;;
82255;SDS011;72145;34.434;-117.370;2023-08-21T01:28:34;6.13;;;5.53;;
82255;SDS011;72145;34.434;-117.370;2023-08-21T01:29:08;6.78;;;5.90;;
82255;SDS011;72145;34.434;-117.370;2023-08-21T01:29:41;7.00;;;6.28;;
82255;SDS011;72145;34.434;-117.370;2023-08-21T01:30:16;7.15;;;6.20;;
82255;SDS011;72145;34.434;-117.370;2023-08-21T01:30:50;6.40;;;5.80;;
82255;SDS011;72145;34.434;-117.370;2023-08-21T01:31:28;7.45;;;6.03;;
82255;SDS011;72145;34.434;-117.370;2023-08-21T01:33:03;7.05;;;6.35;;
82255;SDS011;72145;34.434;-117.370;2023-08-21T01:33:47;7.63;;;7.03;;
82255;SDS011;72145;34.434;-117.370;2023-08-21T01:34:26;6.47;;;5.88;;
82255;SDS011;72145;34.434;-117.370;2023-08-21T01:35:05;6.68;;;6.07;;
82255;SDS011;72145;34.434;-117.370;2023-08-21T01:35:41;7.35;;;6.70;;
82255;SDS011;72145;34.434;-117.370;2023-08-21T01:36:16;6.68;;;6.00;;
82255;SDS011;72145;34.434;-117.370;2023-08-21T01:36:50;6.97;;;6.32;;
82255;SDS011;72145;34.434;-117.370;2023-08-21T01:37:24;6.03;;;5.53;;
82255;SDS011;72145;34.434;-117.370;2023-08-21T01:37:58;6.72;;;6.22;;
82255;SDS011;72145;34.434;-117.370;2023-08-21T01:38:32;7.03;;;6.07;;
82255;SDS011;72145;34.434;-117.370;2023-08-21T01:39:07;6.75;;;6.15;;
82255;SDS011;72145;34.434;-117.370;2023-08-21T01:39:40;8.68;;;7.97;;
82255;SDS011;72145;34.434;-117.370;2023-08-21T01:40:19;8.75;;;8.15;;
82255;SDS011;72145;34.434;-117.370;2023-08-21T01:40:56;6.38;;;5.78;;
82255;SDS011;72145;34.434;-117.370;2023-08-21T01:41:29;6.40;;;5.88;;
82255;SDS011;72145;34.434;-117.370;2023-08-21T01:42:02;8.23;;;7.63;;
82255;SDS011;72145;34.434;-117.370;2023-08-21T01:42:36;6.28;;;5.78;;
82255;SDS011;72145;34.434;-117.370;2023-08-21T01:43:10;6.13;;;5.63;;
82255;SDS011;72145;34.434;-117.370;2023-08-21T01:43:43;8.00;;;7.40;;
82255;SDS011;72145;34.434;-117.370;2023-08-21T01:44:16;6.43;;;5.93;;
82255;SDS011;72145;34.434;-117.370;2023-08-21T01:44:49;5.43;;;5.03;;
82255;SDS011;72145;34.434;-117.370;2023-08-21T01:45:22;2.78;;;1.70;;
82255;SDS011;72145;34.434;-117.370;2023-08-21T01:45:56;2.85;;;1.55;;
82255;SDS011;72145;34.434;-117.370;2023-08-21T01:46:30;1.15;;;0.10;;
82255;SDS011;72145;34.434;-117.370;2023-08-21T01:47:03;2.50;;;0.50;;
82255;SDS011;72145;34.434;-117.370;2023-08-21T01:47:36;2.20;;;0.60;;
82255;SDS011;72145;34.434;-117.370;2023-08-21T01:48:10;1.40;;;0.30;;
82255;SDS011;72145;34.434;-117.370;2023-08-21T01:48:43;1.58;;;0.28;;
82255;SDS011;72145;34.434;-117.370;2023-08-21T01:49:16;2.63;;;1.92;;
82255;SDS011;72145;34.434;-117.370;2023-08-21T01:49:51;3.28;;;2.53;;
82255;SDS011;72145;34.434;-117.370;2023-08-21T01:50:24;8.52;;;7.95;;
82255;SDS011;72145;34.434;-117.370;2023-08-21T01:50:57;3.00;;;1.92;;
82255;SDS011;72145;34.434;-117.370;2023-08-21T01:51:34;1.30;;;0.20;;
82255;SDS011;72145;34.434;-117.370;2023-08-21T01:52:07;4.35;;;3.95;;
82255;SDS011;72145;34.434;-117.370;2023-08-21T01:52:41;5.43;;;5.03;;
82255;SDS011;72145;34.434;-117.370;2023-08-21T01:53:14;6.78;;;6.28;;
82255;SDS011;72145;34.434;-117.370;2023-08-21T01:53:47;10.20;;;9.50;;
82255;SDS011;72145;34.434;-117.370;2023-08-21T01:54:20;3.30;;;2.65;;
82255;SDS011;72145;34.434;-117.370;2023-08-21T01:54:53;4.85;;;4.45;;
82255;SDS011;72145;34.434;-117.370;2023-08-21T01:55:26;5.65;;;5.15;;
82255;SDS011;72145;34.434;-117.370;2023-08-21T01:56:00;6.43;;;5.93;;
82255;SDS011;72145;34.434;-117.370;2023-08-21T01:56:33;8.15;;;7.55;;
82255;SDS011;72145;34.434;-117.370;2023-08-21T01:57:07;7.60;;;7.10;;
82255;SDS011;72145;34.434;-117.370;2023-08-21T01:57:40;6.53;;;6.07;;
82255;SDS011;72145;34.434;-117.370;2023-08-21T01:58:14;9.70;;;9.10;;
82255;SDS011;72145;34.434;-117.370;2023-08-21T01:58:47;7.32;;;6.82;;
82255;SDS011;72145;34.434;-117.370;2023-08-21T01:59:21;5.43;;;5.03;;
82255;SDS011;72145;34.434;-117.370;2023-08-21T01:59:56;8.82;;;8.23;;
82255;SDS011;72145;34.434;-117.370;2023-08-21T02:00:29;5.75;;;5.25;;
82255;SDS011;72145;34.434;-117.370;2023-08-21T02:01:02;5.68;;;5.18;;
82255;SDS011;72145;34.434;-117.370;2023-08-21T02:01:37;3.83;;;3.50;;
82255;SDS011;72145;34.434;-117.370;2023-08-21T02:02:10;5.53;;;5.13;;
82255;SDS011;72145;34.434;-117.370;2023-08-21T02:02:43;5.50;;;5.10;;
82255;SDS011;72145;34.434;-117.370;2023-08-21T02:03:16;3.42;;;2.25;;
82255;SDS011;72145;34.434;-117.370;2023-08-21T02:03:50;4.82;;;4.43;;
82255;SDS011;72145;34.434;-117.370;2023-08-21T02:04:23;6.60;;;6.10;;
82255;SDS011;72145;34.434;-117.370;2023-08-21T02:04:56;3.22;;;2.72;;
82255;SDS011;72145;34.434;-117.370;2023-08-21T02:05:30;5.57;;;5.18;;
82255;SDS011;72145;34.434;-117.370;2023-08-21T02:06:03;2.88;;;2.25;;
82255;SDS011;72145;34.434;-117.370;2023-08-21T02:06:36;3.35;;;3.05;;
82255;SDS011;72145;34.434;-117.370;2023-08-21T02:07:09;4.43;;;3.58;;
82255;SDS011;72145;34.434;-117.370;2023-08-21T02:07:42;3.53;;;2.47;;
82255;SDS011;72145;34.434;-117.370;2023-08-21T02:08:17;4.15;;;3.38;;
82255;SDS011;72145;34.434;-117.370;2023-08-21T02:08:50;2.78;;;1.83;;
82255;SDS011;72145;34.434;-117.370;2023-08-21T02:09:23;2.88;;;1.73;;
82255;SDS011;72145;34.434;-117.370;2023-08-21T02:09:56;2.95;;;2.15;;
82255;SDS011;72145;34.434;-117.370;2023-08-21T02:10:29;5.45;;;5.05;;
82255;SDS011;72145;34.434;-117.370;2023-08-21T02:11:02;4.97;;;4.40;;
82255;SDS011;72145;34.434;-117.370;2023-08-21T02:11:36;3.03;;;2.38;;
82255;SDS011;72145;34.434;-117.370;2023-08-21T02:12:09;3.30;;;1.75;;
82255;SDS011;72145;34.434;-117.370;2023-08-21T02:12:42;3.15;;;2.08;;
82255;SDS011;72145;34.434;-117.370;2023-08-21T02:13:16;2.90;;;1.98;;
82255;SDS011;72145;34.434;-117.370;2023-08-21T02:13:50;2.42;;;0.95;;
82255;SDS011;72145;34.434;-117.370;2023-08-21T02:14:23;2.50;;;1.38;;
82255;SDS011;72145;34.434;-117.370;2023-08-21T02:14:57;2.85;;;1.45;;
82255;SDS011;72145;34.434;-117.370;2023-08-21T02:15:30;2.60;;;1.50;;
82255;SDS011;72145;34.434;-117.370;2023-08-21T02:16:04;2.13;;;0.90;;
82255;SDS011;72145;34.434;-117.370;2023-08-21T02:16:37;3.17;;;2.38;;
82255;SDS011;72145;34.434;-117.370;2023-08-21T02:17:10;2.10;;;0.80;;
82255;SDS011;72145;34.434;-117.370;2023-08-21T02:17:43;2.17;;;0.90;;
82255;SDS011;72145;34.434;-117.370;2023-08-21T02:18:16;2.80;;;1.00;;
82255;SDS011;72145;34.434;-117.370;2023-08-21T02:18:50;2.53;;;1.15;;
82255;SDS011;72145;34.434;-117.370;2023-08-21T02:19:23;2.50;;;1.10;;
82255;SDS011;72145;34.434;-117.370;2023-08-21T02:19:56;2.90;;;2.13;;
82255;SDS011;72145;34.434;-117.370;2023-08-21T02:20:29;2.63;;;1.58;;
82255;SDS011;72145;34.434;-117.370;2023-08-21T02:21:02;3.55;;;1.60;;
82255;SDS011;72145;34.434;-117.370;2023-08-21T02:21:35;2.30;;;1.15;;
82255;SDS011;72145;34.434;-117.370;2023-08-21T02:22:09;1.67;;;0.60;;
82255;SDS011;72145;34.434;-117.370;2023-08-21T02:22:42;2.05;;;0.93;;
82255;SDS011;72145;34.434;-117.370;2023-08-21T02:23:15;2.50;;;1.23;;
82255;SDS011;72145;34.434;-117.370;2023-08-21T02:23:48;2.70;;;1.52;;
82255;SDS011;72145;34.434;-117.370;2023-08-21T02:24:22;2.17;;;0.82;;
82255;SDS011;72145;34.434;-117.370;2023-08-21T02:24:55;1.95;;;0.80;;
82255;SDS011;72145;34.434;-117.370;2023-08-21T02:25:29;2.28;;;0.88;;
82255;SDS011;72145;34.434;-117.370;2023-08-21T02:26:03;1.95;;;0.63;;
82255;SDS011;72145;34.434;-117.370;2023-08-21T02:26:37;2.33;;;0.43;;
82255;SDS011;72145;34.434;-117.370;2023-08-21T02:27:10;2.42;;;1.00;;
82255;SDS011;72145;34.434;-117.370;2023-08-21T02:27:43;2.65;;;1.55;;
82255;SDS011;72145;34.434;-117.370;2023-08-21T02:28:16;2.85;;;1.38;;
82255;SDS011;72145;34.434;-117.370;2023-08-21T02:28:50;1.85;;;0.73;;
82255;SDS011;72145;34.434;-117.370;2023-08-21T02:29:23;2.50;;;0.57;;
82255;SDS011;72145;34.434;-117.370;2023-08-21T02:29:56;2.75;;;1.25;;
82255;SDS011;72145;34.434;-117.370;2023-08-21T02:30:29;1.77;;;0.77;;
82255;SDS011;72145;34.434;-117.370;2023-08-21T02:31:02;1.95;;;0.80;;
82255;SDS011;72145;34.434;-117.370;2023-08-21T02:31:37;2.47;;;1.15;;
82255;SDS011;72145;34.434;-117.370;2023-08-21T02:32:10;2.50;;;0.95;;
82255;SDS011;72145;34.434;-117.370;2023-08-21T02:32:43;2.03;;;0.70;;
82255;SDS011;72145;34.434;-117.370;2023-08-21T02:33:17;2.53;;;1.45;;
82255;SDS011;72145;34.434;-117.370;2023-08-21T02:33:50;2.08;;;0.60;;
82255;SDS011;72145;34.434;-117.370;2023-08-21T02:34:23;2.03;;;0.63;;
82255;SDS011;72145;34.434;-117.370;2023-08-21T02:34:56;1.23;;;0.40;;
82255;SDS011;72145;34.434;-117.370;2023-08-21T02:35:30;1.85;;;0.52;;
82255;SDS011;72145;34.434;-117.370;2023-08-21T02:36:03;1.80;;;0.57;;
82255;SDS011;72145;34.434;-117.370;2023-08-21T02:36:36;1.92;;;0.50;;
82255;SDS011;72145;34.434;-117.370;2023-08-21T02:37:09;2.33;;;0.50;;
82255;SDS011;72145;34.434;-117.370;2023-08-21T02:37:43;2.50;;;1.15;;
82255;SDS011;72145;34.434;-117.370;2023-08-21T02:38:16;1.83;;;0.63;;
82255;SDS011;72145;34.434;-117.370;2023-08-21T02:38:49;2.40;;;0.95;;
82255;SDS011;72145;34.434;-117.370;2023-08-21T02:39:22;2.47;;;1.08;;
82255;SDS011;72145;34.434;-117.370;2023-08-21T02:39:55;1.88;;;0.60;;
82255;SDS011;72145;34.434;-117.370;2023-08-21T02:40:29;1.83;;;0.80;;
82255;SDS011;72145;34.434;-117.370;2023-08-21T02:41:02;1.88;;;0.43;;
82255;SDS011;72145;34.434;-117.370;2023-08-21T02:41:35;2.10;;;0.82;;
82255;SDS011;72145;34.434;-117.370;2023-08-21T02:42:08;1.67;;;0.35;;
82255;SDS011;72145;34.434;-117.370;2023-08-21T02:42:41;1.58;;;0.30;;
82255;SDS011;72145;34.434;-117.370;2023-08-21T02:43:15;1.50;;;0.22;;
82255;SDS011;72145;34.434;-117.370;2023-08-21T02:43:49;2.03;;;0.30;;
82255;SDS011;72145;34.434;-117.370;2023-08-21T02:44:23;1.83;;;0.30;;
82255;SDS011;72145;34.434;-117.370;2023-08-21T02:44:56;0.93;;;0.22;;
82255;SDS011;72145;34.434;-117.370;2023-08-21T02:45:30;1.98;;;0.70;;
82255;SDS011;72145;34.434;-117.370;2023-08-21T02:46:03;1.20;;;0.20;;
82255;SDS011;72145;34.434;-117.370;2023-08-21T02:46:36;1.25;;;0.20;;
82255;SDS011;72145;34.434;-117.370;2023-08-21T02:47:10;1.25;;;0.20;;
82255;SDS011;72145;34.434;-117.370;2023-08-21T02:47:43;1.48;;;0.40;;
82255;SDS011;72145;34.434;-117.370;2023-08-21T02:48:17;2.55;;;0.35;;
82255;SDS011;72145;34.434;-117.370;2023-08-21T02:48:50;2.03;;;0.68;;
82255;SDS011;72145;34.434;-117.370;2023-08-21T02:49:23;2.03;;;0.40;;
82255;SDS011;72145;34.434;-117.370;2023-08-21T02:49:57;1.50;;;0.35;;
82255;SDS011;72145;34.434;-117.370;2023-08-21T02:50:31;2.15;;;0.40;;
82255;SDS011;72145;34.434;-117.370;2023-08-21T02:51:04;2.25;;;0.80;;
82255;SDS011;72145;34.434;-117.370;2023-08-21T02:51:38;2.85;;;0.75;;
82255;SDS011;72145;34.434;-117.370;2023-08-21T02:52:11;1.80;;;0.40;;
82255;SDS011;72145;34.434;-117.370;2023-08-21T02:52:44;2.13;;;0.38;;
82255;SDS011;72145;34.434;-117.370;2023-08-21T02:53:18;1.50;;;0.40;;
82255;SDS011;72145;34.434;-117.370;2023-08-21T02:53:52;1.77;;;0.63;;
82255;SDS011;72145;34.434;-117.370;2023-08-21T02:54:26;2.22;;;0.85;;
82255;SDS011;72145;34.434;-117.370;2023-08-21T02:54:59;2.65;;;0.38;;
82255;SDS011;72145;34.434;-117.370;2023-08-21T02:55:32;1.02;;;0.20;;
82255;SDS011;72145;34.434;-117.370;2023-08-21T02:56:06;2.47;;;1.35;;
82255;SDS011;72145;34.434;-117.370;2023-08-21T02:56:39;1.60;;;0.38;;
82255;SDS011;72145;34.434;-117.370;2023-08-21T02:57:12;1.45;;;0.20;;
82255;SDS011;72145;34.434;-117.370;2023-08-21T02:57:46;2.03;;;0.35;;
82255;SDS011;72145;34.434;-117.370;2023-08-21T02:58:19;1.35;;;0.20;;
82255;SDS011;72145;34.434;-117.370;2023-08-21T02:58:52;1.13;;;0.20;;
82255;SDS011;72145;34.434;-117.370;2023-08-21T02:59:26;1.70;;;0.30;;
82255;SDS011;72145;34.434;-117.370;2023-08-21T02:59:59;2.40;;;0.60;;
82255;SDS011;72145;34.434;-117.370;2023-08-21T03:00:32;1.90;;;0.60;;
82255;SDS011;72145;34.434;-117.370;2023-08-21T03:01:05;1.30;;;0.20;;
82255;SDS011;72145;34.434;-117.370;2023-08-21T03:01:39;1.65;;;0.30;;
82255;SDS011;72145;34.434;-117.370;2023-08-21T03:02:12;2.00;;;0.50;;
82255;SDS011;72145;34.434;-117.370;2023-08-21T03:02:45;1.90;;;0.35;;
82255;SDS011;72145;34.434;-117.370;2023-08-21T03:03:19;1.20;;;0.22;;
82255;SDS011;72145;34.434;-117.370;2023-08-21T03:03:52;1.50;;;0.30;;
82255;SDS011;72145;34.434;-117.370;2023-08-21T03:04:25;1.30;;;0.22;;
82255;SDS011;72145;34.434;-117.370;2023-08-21T03:04:59;2.08;;;0.50;;
82255;SDS011;72145;34.434;-117.370;2023-08-21T03:05:32;2.05;;;0.43;;
82255;SDS011;72145;34.434;-117.370;2023-08-21T03:06:05;1.52;;;0.20;;
82255;SDS011;72145;34.434;-117.370;2023-08-21T03:06:39;2.10;;;0.25;;
82255;SDS011;72145;34.434;-117.370;2023-08-21T03:07:12;1.48;;;0.32;;
82255;SDS011;72145;34.434;-117.370;2023-08-21T03:07:46;1.52;;;0.43;;
82255;SDS011;72145;34.434;-117.370;2023-08-21T03:08:19;1.02;;;0.30;;
82255;SDS011;72145;34.434;-117.370;2023-08-21T03:08:52;1.95;;;0.40;;
82255;SDS011;72145;34.434;-117.370;2023-08-21T03:09:26;2.03;;;0.65;;
82255;SDS011;72145;34.434;-117.370;2023-08-21T03:09:59;1.75;;;0.20;;
82255;SDS011;72145;34.434;-117.370;2023-08-21T03:10:34;1.98;;;0.63;;
82255;SDS011;72145;34.434;-117.370;2023-08-21T03:11:09;1.90;;;0.30;;
82255;SDS011;72145;34.434;-117.370;2023-08-21T03:11:42;2.78;;;0.60;;
82255;SDS011;72145;34.434;-117.370;2023-08-21T03:12:15;2.03;;;0.30;;
82255;SDS011;72145;34.434;-117.370;2023-08-21T03:12:49;1.83;;;0.30;;
82255;SDS011;72145;34.434;-117.370;2023-08-21T03:13:22;2.20;;;0.73;;
82255;SDS011;72145;34.434;-117.370;2023-08-21T03:13:55;1.25;;;0.22;;
82255;SDS011;72145;34.434;-117.370;2023-08-21T03:14:28;1.48;;;0.30;;
82255;SDS011;72145;34.434;-117.370;2023-08-21T03:15:02;1.85;;;0.47;;
82255;SDS011;72145;34.434;-117.370;2023-08-21T03:15:36;1.63;;;0.30;;
82255;SDS011;72145;34.434;-117.370;2023-08-21T03:16:09;1.67;;;0.40;;
82255;SDS011;72145;34.434;-117.370;2023-08-21T03:16:42;2.38;;;0.65;;
82255;SDS011;72145;34.434;-117.370;2023-08-21T03:17:16;1.40;;;0.20;;
82255;SDS011;72145;34.434;-117.370;2023-08-21T03:17:49;2.08;;;0.50;;
82255;SDS011;72145;34.434;-117.370;2023-08-21T03:18:22;2.08;;;0.43;;
82255;SDS011;72145;34.434;-117.370;2023-08-21T03:18:59;0.77;;;0.13;;